Time;durP1;ratioP1;P1;durP2;ratioP2;P2;SDS_P1;SDS_P2;PMS_P1;PMS_P2;Temp;Humidity;BMP_temperature;BMP_pressure;BME280_temperature;BME280_humidity;BME280_pressure;Samples;Min_cycle;Max_cycle;Signal;HPM_P1;HPM_P2
2020/12/04 00:00:46;;;;;;;9.98;6.68;;;5.00;91.60;;;;;;2060475;28;20046;-81
2020/12/04 00:01:47;;;;;;;10.88;7.35;;;5.00;91.90;;;;;;2062668;28;20038;-81
2020/12/04 00:02:48;;;;;;;9.90;6.93;;;5.00;91.60;;;;;;2072628;28;20034;-81
2020/12/04 00:03:49;;;;;;;10.35;7.05;;;5.00;91.60;;;;;;2062275;28;20028;-81
2020/12/04 00:04:49;;;;;;;10.60;7.03;;;5.00;91.50;;;;;;2057034;28;20093;-81
2020/12/04 00:05:50;;;;;;;11.52;6.97;;;5.00;91.50;;;;;;2059944;28;20019;-82
2020/12/04 00:06:51;;;;;;;12.52;7.43;;;5.00;91.50;;;;;;2064347;28;20027;-81
2020/12/04 00:07:51;;;;;;;10.15;6.55;;;5.00;91.50;;;;;;2058341;28;20023;-81
2020/12/04 00:08:52;;;;;;;9.52;6.70;;;5.00;91.50;;;;;;2068366;28;20388;-81
2020/12/04 00:09:53;;;;;;;9.15;6.13;;;5.00;91.50;;;;;;2072332;28;20108;-81
2020/12/04 00:10:54;;;;;;;9.38;6.40;;;5.00;91.50;;;;;;2063423;28;20030;-82
2020/12/04 00:11:54;;;;;;;9.57;6.50;;;5.00;91.50;;;;;;2057559;28;20053;-81
2020/12/04 00:12:55;;;;;;;10.45;7.05;;;5.00;91.50;;;;;;2048390;28;20394;-81
2020/12/04 00:13:56;;;;;;;10.60;6.68;;;5.00;91.40;;;;;;2056061;28;20438;-81
2020/12/04 00:14:56;;;;;;;9.38;6.45;;;5.00;91.40;;;;;;2063665;28;20447;-81
2020/12/04 00:16:00;;;;;;;8.88;6.10;;;5.00;91.40;;;;;;2060935;28;20027;-81
2020/12/04 00:17:01;;;;;;;9.70;5.75;;;5.00;91.40;;;;;;2050140;28;20027;-81
2020/12/04 00:18:01;;;;;;;10.50;6.53;;;5.00;91.40;;;;;;2055232;28;20118;-81
2020/12/04 00:19:02;;;;;;;9.20;6.25;;;5.00;91.40;;;;;;2061863;28;20081;-81
2020/12/04 00:20:04;;;;;;;9.13;5.85;;;5.00;91.40;;;;;;2063932;28;20527;-82
2020/12/04 00:21:05;;;;;;;9.07;6.10;;;5.00;91.40;;;;;;2060051;28;20023;-81
2020/12/04 00:22:05;;;;;;;9.00;6.35;;;5.00;91.40;;;;;;2056120;28;20051;-81
2020/12/04 00:23:06;;;;;;;9.95;6.55;;;5.00;91.40;;;;;;2068363;28;20026;-81
2020/12/04 00:24:07;;;;;;;8.90;6.30;;;5.00;91.40;;;;;;2072149;28;20092;-81
2020/12/04 00:25:08;;;;;;;9.45;6.43;;;5.00;91.30;;;;;;2064743;28;20040;-81
2020/12/04 00:26:08;;;;;;;9.60;6.07;;;5.00;91.30;;;;;;2066232;28;20073;-81
2020/12/04 00:27:09;;;;;;;9.75;6.60;;;5.00;91.30;;;;;;2055879;28;20117;-81
2020/12/04 00:28:10;;;;;;;9.65;6.72;;;5.00;91.30;;;;;;2054789;28;20106;-81
2020/12/04 00:29:10;;;;;;;9.02;6.28;;;5.00;91.30;;;;;;2056351;28;20023;-81
2020/12/04 00:30:11;;;;;;;9.40;5.88;;;5.00;91.30;;;;;;2055553;28;20030;-81
2020/12/04 00:31:12;;;;;;;8.88;6.18;;;5.00;91.30;;;;;;2057323;28;20077;-81
2020/12/04 00:32:12;;;;;;;8.63;6.03;;;5.00;91.30;;;;;;2055967;28;20602;-81
2020/12/04 00:33:13;;;;;;;9.73;5.65;;;5.00;91.30;;;;;;2053747;28;20097;-82
2020/12/04 00:34:14;;;;;;;9.48;6.32;;;5.00;91.20;;;;;;2050109;28;20054;-82
2020/12/04 00:35:14;;;;;;;9.23;6.38;;;5.00;91.20;;;;;;2056450;28;20023;-81
2020/12/04 00:36:15;;;;;;;9.30;6.13;;;5.00;91.10;;;;;;2057491;28;20121;-81
2020/12/04 00:37:16;;;;;;;8.93;6.07;;;5.00;91.10;;;;;;2056328;28;20031;-81
2020/12/04 00:38:16;;;;;;;9.88;6.15;;;5.00;91.10;;;;;;2060295;28;20038;-81
2020/12/04 00:39:17;;;;;;;9.82;6.80;;;5.00;91.10;;;;;;2055276;28;20046;-81
2020/12/04 00:40:18;;;;;;;9.15;6.40;;;5.00;91.10;;;;;;2061096;28;20019;-81
2020/12/04 00:41:19;;;;;;;10.50;6.78;;;5.00;91.10;;;;;;2057077;28;20431;-81
2020/12/04 00:42:19;;;;;;;9.18;6.18;;;5.10;91.10;;;;;;2052996;28;20038;-81
2020/12/04 00:43:20;;;;;;;9.32;6.30;;;5.00;91.10;;;;;;2063519;28;20562;-81
2020/12/04 00:44:21;;;;;;;8.88;5.85;;;5.00;91.10;;;;;;2056888;28;20023;-81
2020/12/04 00:45:21;;;;;;;8.60;6.00;;;5.00;91.10;;;;;;2055422;28;20042;-81
2020/12/04 00:46:22;;;;;;;8.95;6.15;;;5.00;91.10;;;;;;2056291;28;20031;-81
2020/12/04 00:47:23;;;;;;;9.73;6.40;;;5.10;91.10;;;;;;2066040;28;20544;-81
2020/12/04 00:48:23;;;;;;;10.07;6.10;;;5.10;91.10;;;;;;2065697;28;20480;-81
2020/12/04 00:49:24;;;;;;;9.00;6.25;;;5.00;91.00;;;;;;2057781;28;20125;-81
2020/12/04 00:50:25;;;;;;;9.57;6.25;;;5.00;91.00;;;;;;2049259;28;20051;-81
2020/12/04 00:51:26;;;;;;;8.95;5.88;;;5.00;91.00;;;;;;2064485;28;20412;-81
2020/12/04 00:52:29;;;;;;;9.35;6.20;;;5.10;91.10;;;;;;2065146;28;20022;-81
2020/12/04 00:53:29;;;;;;;9.02;5.85;;;5.00;91.00;;;;;;2066678;28;20405;-81
2020/12/04 00:54:30;;;;;;;8.18;5.40;;;5.10;91.10;;;;;;2065643;28;20149;-81
2020/12/04 00:55:31;;;;;;;8.25;5.65;;;5.10;91.10;;;;;;2065312;28;20031;-81
2020/12/04 00:56:32;;;;;;;8.73;6.20;;;5.00;91.00;;;;;;2065012;28;20030;-81
2020/12/04 00:57:33;;;;;;;7.82;5.65;;;5.10;91.10;;;;;;2065791;28;20027;-81
2020/12/04 00:58:35;;;;;;;9.48;6.30;;;5.10;91.00;;;;;;2057081;28;20038;-80
2020/12/04 00:59:36;;;;;;;9.93;6.07;;;5.00;91.00;;;;;;2057419;28;20038;-80
2020/12/04 01:00:36;;;;;;;9.15;6.07;;;5.00;91.00;;;;;;2056829;28;20031;-81
2020/12/04 01:01:37;;;;;;;8.35;5.68;;;5.10;91.10;;;;;;2056482;28;20125;-81
2020/12/04 01:02:38;;;;;;;9.13;6.30;;;5.00;91.00;;;;;;2065208;28;20022;-81
2020/12/04 01:03:38;;;;;;;8.25;5.65;;;5.00;91.00;;;;;;2065844;28;20030;-81
2020/12/04 01:04:39;;;;;;;8.57;5.82;;;5.00;91.00;;;;;;2064727;28;20034;-81
2020/12/04 01:05:40;;;;;;;8.32;5.40;;;5.00;91.00;;;;;;2063111;28;20472;-81
2020/12/04 01:06:41;;;;;;;8.20;5.82;;;5.00;91.00;;;;;;2057526;28;20026;-81
2020/12/04 01:07:41;;;;;;;9.38;6.00;;;5.00;91.00;;;;;;2061712;28;20073;-81
2020/12/04 01:08:43;;;;;;;8.25;5.72;;;5.00;91.00;;;;;;2058844;28;20556;-81
2020/12/04 01:09:43;;;;;;;10.23;6.38;;;5.00;90.90;;;;;;2057394;28;20505;-81
2020/12/04 01:10:44;;;;;;;8.93;5.88;;;5.00;91.00;;;;;;2060041;28;20042;-81
2020/12/04 01:11:45;;;;;;;8.55;5.85;;;5.00;91.00;;;;;;2065521;28;20037;-81
2020/12/04 01:12:46;;;;;;;8.38;5.88;;;5.10;91.00;;;;;;2065473;28;20121;-81
2020/12/04 01:13:47;;;;;;;8.57;5.90;;;5.00;91.00;;;;;;2065784;28;20519;-81
2020/12/04 01:14:48;;;;;;;8.88;6.10;;;5.00;90.90;;;;;;2061669;28;20062;-81
2020/12/04 01:15:49;;;;;;;8.80;5.90;;;5.00;90.90;;;;;;2054641;28;20027;-81
2020/12/04 01:16:49;;;;;;;8.93;6.00;;;5.10;90.90;;;;;;2057302;28;20066;-81
2020/12/04 01:17:50;;;;;;;9.10;5.97;;;5.00;90.90;;;;;;2056613;28;20067;-81
2020/12/04 01:18:50;;;;;;;9.27;5.78;;;5.00;90.90;;;;;;2053022;28;20042;-81
2020/12/04 01:19:51;;;;;;;8.85;5.82;;;5.10;91.00;;;;;;2061719;28;20034;-81
2020/12/04 01:20:52;;;;;;;8.88;5.90;;;5.00;91.00;;;;;;2064034;28;20031;-81
2020/12/04 01:21:52;;;;;;;9.57;6.28;;;5.00;90.90;;;;;;2057257;28;20019;-81
2020/12/04 01:22:53;;;;;;;9.77;6.32;;;5.10;90.90;;;;;;2056240;28;20481;-80
2020/12/04 01:23:57;;;;;;;9.93;6.35;;;5.00;90.90;;;;;;2065321;28;20150;-81
2020/12/04 01:24:58;;;;;;;9.95;6.25;;;5.00;90.90;;;;;;2065104;28;20109;-80
2020/12/04 01:25:59;;;;;;;8.65;5.68;;;5.00;90.90;;;;;;2056885;28;20038;-81
2020/12/04 01:26:59;;;;;;;9.68;6.07;;;5.00;90.90;;;;;;2057450;28;20121;-80
2020/12/04 01:28:00;;;;;;;8.48;5.50;;;5.00;91.00;;;;;;2064554;28;20022;-81
2020/12/04 01:29:01;;;;;;;9.05;6.32;;;5.00;90.90;;;;;;2060840;28;20038;-81
2020/12/04 01:30:02;;;;;;;8.98;6.40;;;5.00;90.90;;;;;;2059578;28;20029;-81
2020/12/04 01:31:03;;;;;;;8.55;5.88;;;5.00;90.80;;;;;;2059932;28;20468;-81
2020/12/04 01:32:03;;;;;;;10.10;5.80;;;5.10;90.90;;;;;;2059828;28;20579;-81
2020/12/04 01:33:04;;;;;;;8.85;6.20;;;5.00;90.80;;;;;;2058434;28;20030;-81
2020/12/04 01:34:09;;;;;;;9.15;6.03;;;5.10;90.90;;;;;;2049419;28;20090;-81
2020/12/04 01:35:10;;;;;;;9.00;6.38;;;5.00;90.80;;;;;;2043403;28;20088;-81
2020/12/04 01:36:14;;;;;;;8.57;5.88;;;5.00;90.80;;;;;;2049786;28;20472;-81
2020/12/04 01:37:15;;;;;;;8.75;5.90;;;5.00;90.80;;;;;;2065431;28;20117;-81
2020/12/04 01:38:15;;;;;;;8.75;5.88;;;5.10;90.80;;;;;;2064514;28;20349;-81
2020/12/04 01:39:16;;;;;;;8.68;5.75;;;5.10;90.80;;;;;;2064336;28;20058;-81
2020/12/04 01:40:20;;;;;;;8.43;6.15;;;5.00;90.70;;;;;;2065074;28;20026;-81
2020/12/04 01:41:21;;;;;;;8.75;5.90;;;5.00;90.70;;;;;;2064754;28;20035;-81
2020/12/04 01:42:22;;;;;;;9.40;6.22;;;5.00;90.80;;;;;;2064517;28;20054;-81
2020/12/04 01:43:23;;;;;;;8.75;5.63;;;5.00;90.80;;;;;;2063580;28;20041;-81
2020/12/04 01:44:23;;;;;;;9.07;5.65;;;5.00;90.80;;;;;;2065343;28;20603;-81
2020/12/04 01:45:24;;;;;;;8.40;5.22;;;5.10;90.80;;;;;;2061744;28;20086;-81
2020/12/04 01:46:25;;;;;;;7.38;5.15;;;5.10;90.80;;;;;;2072049;28;20480;-81
2020/12/04 01:47:26;;;;;;;7.78;5.32;;;5.00;90.80;;;;;;2071023;28;20507;-81
2020/12/04 01:48:27;;;;;;;9.00;6.03;;;5.10;90.80;;;;;;2060751;28;20465;-81
2020/12/04 01:49:27;;;;;;;8.32;5.95;;;5.10;90.90;;;;;;2065251;28;20448;-81
2020/12/04 01:50:28;;;;;;;8.90;6.00;;;5.10;90.80;;;;;;2053900;28;20027;-81
2020/12/04 01:51:30;;;;;;;8.38;5.68;;;5.00;90.80;;;;;;2065232;28;20026;-81
2020/12/04 01:52:31;;;;;;;7.40;4.97;;;5.00;90.80;;;;;;2055022;28;20023;-81
2020/12/04 01:53:33;;;;;;;8.02;4.93;;;5.00;90.80;;;;;;2048929;28;20449;-81
2020/12/04 01:54:34;;;;;;;8.23;5.25;;;5.00;90.80;;;;;;2049684;28;20130;-81
2020/12/04 01:55:35;;;;;;;8.15;5.00;;;5.00;90.90;;;;;;2063954;28;20443;-82
2020/12/04 01:56:38;;;;;;;8.52;5.53;;;5.00;90.90;;;;;;2065156;28;20027;-81
2020/12/04 01:57:45;;;;;;;8.52;5.63;;;5.00;90.90;;;;;;2071786;28;20122;-81
2020/12/04 01:58:46;;;;;;;8.18;5.35;;;5.00;90.90;;;;;;2059714;28;20165;-81
2020/12/04 01:59:47;;;;;;;7.18;4.82;;;5.00;90.80;;;;;;2055470;28;20090;-81
2020/12/04 02:00:48;;;;;;;8.65;5.78;;;5.00;90.80;;;;;;2063731;28;20113;-81
2020/12/04 02:01:49;;;;;;;7.93;5.40;;;5.00;90.90;;;;;;2063127;28;20019;-81
2020/12/04 02:02:50;;;;;;;8.43;5.68;;;5.00;90.80;;;;;;2067151;28;20026;-81
2020/12/04 02:03:50;;;;;;;9.13;6.00;;;5.00;90.80;;;;;;2065564;28;20132;-81
2020/12/04 02:04:51;;;;;;;8.20;5.75;;;5.00;90.80;;;;;;2064584;28;20090;-82
2020/12/04 02:05:58;;;;;;;8.07;5.32;;;5.00;90.80;;;;;;2061370;28;20030;-82
2020/12/04 02:07:06;;;;;;;7.60;5.15;;;5.00;90.80;;;;;;2055729;28;20023;-81
2020/12/04 02:08:16;;;;;;;7.75;5.03;;;5.00;90.80;;;;;;2064594;28;20027;-82
2020/12/04 02:09:28;;;;;;;8.82;5.97;;;5.00;90.80;;;;;;2065396;28;20073;-82
2020/12/04 02:10:36;;;;;;;8.02;5.55;;;5.00;90.80;;;;;;2061219;28;20030;-81
2020/12/04 02:11:39;;;;;;;9.10;5.78;;;5.00;90.70;;;;;;2063975;28;20030;-82
2020/12/04 02:12:41;;;;;;;9.25;5.82;;;5.00;90.80;;;;;;2063868;28;20608;-82
2020/12/04 02:13:45;;;;;;;8.30;5.25;;;5.00;90.80;;;;;;2056409;28;20027;-82
2020/12/04 02:14:49;;;;;;;8.45;5.38;;;5.00;90.80;;;;;;2065138;28;20117;-81
2020/12/04 02:15:51;;;;;;;7.63;5.05;;;5.00;90.80;;;;;;2070889;28;20556;-81
2020/12/04 02:17:03;;;;;;;7.05;5.10;;;5.00;90.80;;;;;;2058691;28;20054;-81
2020/12/04 02:18:04;;;;;;;7.57;4.93;;;5.00;90.90;;;;;;2063072;28;20057;-81
2020/12/04 02:19:05;;;;;;;7.80;5.00;;;5.00;90.90;;;;;;2063015;28;20030;-81
2020/12/04 02:20:06;;;;;;;8.73;5.53;;;5.00;90.90;;;;;;2063797;28;20026;-81
2020/12/04 02:21:06;;;;;;;7.47;4.90;;;5.00;90.90;;;;;;2063816;28;20018;-81
2020/12/04 02:22:09;;;;;;;6.53;4.70;;;5.00;90.90;;;;;;2063109;28;20027;-81
2020/12/04 02:23:11;;;;;;;7.38;5.10;;;5.00;91.00;;;;;;2061397;28;20031;-81
2020/12/04 02:24:13;;;;;;;7.45;4.60;;;5.00;91.00;;;;;;2057545;28;20027;-81
2020/12/04 02:25:14;;;;;;;7.82;4.97;;;5.00;91.00;;;;;;2058032;28;20073;-82
2020/12/04 02:26:21;;;;;;;7.53;4.85;;;5.00;91.00;;;;;;2064592;28;20025;-81
2020/12/04 02:27:21;;;;;;;7.68;4.75;;;5.00;91.00;;;;;;2063718;28;20515;-81
2020/12/04 02:28:33;;;;;;;7.95;5.05;;;5.00;91.00;;;;;;2061695;28;20117;-81
2020/12/04 02:29:38;;;;;;;7.35;4.50;;;4.90;91.00;;;;;;2065111;28;20369;-81
2020/12/04 02:30:39;;;;;;;7.60;4.55;;;5.00;91.00;;;;;;2064009;28;20026;-81
2020/12/04 02:31:39;;;;;;;8.13;5.18;;;4.90;91.00;;;;;;2062352;28;20535;-81
2020/12/04 02:32:40;;;;;;;8.82;5.47;;;5.00;91.10;;;;;;2064028;28;20026;-81
2020/12/04 02:33:42;;;;;;;7.90;5.03;;;4.90;91.10;;;;;;2055978;28;20172;-81
2020/12/04 02:34:43;;;;;;;7.30;4.72;;;4.90;91.10;;;;;;2051499;28;20032;-82
2020/12/04 02:35:44;;;;;;;7.68;5.13;;;4.90;91.10;;;;;;2059259;28;20181;-81
2020/12/04 02:36:46;;;;;;;7.15;5.00;;;4.90;91.10;;;;;;2052065;28;20046;-81
2020/12/04 02:37:47;;;;;;;7.43;5.32;;;4.90;91.10;;;;;;2048693;28;20023;-81
2020/12/04 02:38:47;;;;;;;8.07;4.95;;;4.90;91.10;;;;;;2056555;28;20058;-82
2020/12/04 02:39:48;;;;;;;8.50;5.18;;;4.90;91.10;;;;;;2063209;28;20073;-81
2020/12/04 02:40:49;;;;;;;7.88;4.82;;;4.90;91.20;;;;;;2047735;28;20031;-81
2020/12/04 02:41:50;;;;;;;8.32;5.28;;;4.90;91.20;;;;;;2047725;28;20023;-81
2020/12/04 02:42:54;;;;;;;7.80;5.35;;;4.90;91.20;;;;;;2063358;28;20022;-81
2020/12/04 02:43:54;;;;;;;7.93;5.07;;;4.90;91.20;;;;;;2063694;28;20499;-81
2020/12/04 02:44:55;;;;;;;7.75;4.93;;;4.90;91.20;;;;;;2065271;28;20038;-81
2020/12/04 02:45:55;;;;;;;6.80;5.05;;;4.90;91.20;;;;;;2061831;28;20555;-81
2020/12/04 02:46:56;;;;;;;7.57;5.03;;;4.90;91.30;;;;;;2058178;28;20035;-81
2020/12/04 02:47:57;;;;;;;7.40;4.90;;;4.90;91.30;;;;;;2064962;28;20468;-81
2020/12/04 02:48:57;;;;;;;6.70;4.50;;;4.90;91.30;;;;;;2064728;28;20077;-81
2020/12/04 02:49:58;;;;;;;7.38;4.97;;;4.90;91.30;;;;;;2063941;28;20026;-81
2020/12/04 02:50:59;;;;;;;6.65;4.90;;;4.90;91.40;;;;;;2055507;28;20525;-82
2020/12/04 02:51:59;;;;;;;7.63;4.90;;;4.90;91.40;;;;;;2049635;28;20130;-82
2020/12/04 02:53:00;;;;;;;7.55;4.85;;;4.90;91.40;;;;;;2047158;28;20118;-82
2020/12/04 02:54:00;;;;;;;8.30;5.40;;;4.90;91.40;;;;;;2052538;28;20027;-80
2020/12/04 02:55:01;;;;;;;7.40;5.00;;;4.90;91.40;;;;;;2055844;28;20030;-81
2020/12/04 02:56:02;;;;;;;6.63;4.45;;;4.90;91.40;;;;;;2056374;28;20469;-81
2020/12/04 02:57:02;;;;;;;7.95;4.72;;;4.90;91.40;;;;;;2052077;28;20119;-81
2020/12/04 02:58:03;;;;;;;6.18;4.30;;;4.90;91.40;;;;;;2060410;28;20023;-81
2020/12/04 02:59:04;;;;;;;6.57;4.30;;;4.90;91.40;;;;;;2064442;28;20065;-81
2020/12/04 03:00:04;;;;;;;7.82;4.72;;;4.90;91.40;;;;;;2056048;28;20019;-81
2020/12/04 03:01:05;;;;;;;6.28;4.38;;;4.90;91.40;;;;;;2063336;28;20463;-81
2020/12/04 03:02:06;;;;;;;7.13;5.00;;;4.90;91.40;;;;;;2056558;28;20127;-81
2020/12/04 03:03:06;;;;;;;7.72;4.78;;;4.90;91.40;;;;;;2056022;28;20058;-82
2020/12/04 03:04:07;;;;;;;7.43;4.65;;;4.90;91.40;;;;;;2064743;28;20037;-81
2020/12/04 03:05:08;;;;;;;6.47;4.43;;;4.90;91.40;;;;;;2064435;28;20045;-81
2020/12/04 03:06:08;;;;;;;6.70;4.35;;;4.90;91.40;;;;;;2064413;28;20034;-81
2020/12/04 03:07:10;;;;;;;6.28;4.47;;;4.90;91.40;;;;;;2064004;28;20030;-81
2020/12/04 03:08:11;;;;;;;6.72;4.10;;;4.90;91.40;;;;;;2063482;28;20099;-81
2020/12/04 03:09:11;;;;;;;7.55;4.75;;;4.90;91.40;;;;;;2064616;28;20038;-82
2020/12/04 03:10:12;;;;;;;7.18;4.20;;;4.90;91.70;;;;;;2056243;28;20027;-81
2020/12/04 03:11:13;;;;;;;6.82;4.10;;;4.90;91.50;;;;;;2055125;28;20027;-81
2020/12/04 03:12:13;;;;;;;6.93;4.20;;;4.90;91.40;;;;;;2064291;28;20030;-82
2020/12/04 03:13:14;;;;;;;5.80;3.92;;;4.90;91.40;;;;;;2062119;28;20485;-82
2020/12/04 03:14:14;;;;;;;7.70;4.57;;;4.90;91.40;;;;;;2058205;28;20034;-82
2020/12/04 03:15:15;;;;;;;6.72;4.35;;;4.90;91.50;;;;;;2057819;28;20027;-82
2020/12/04 03:16:16;;;;;;;7.18;4.47;;;4.90;91.40;;;;;;2056247;28;20557;-82
2020/12/04 03:17:17;;;;;;;6.90;4.40;;;4.90;91.40;;;;;;2061940;28;20053;-81
2020/12/04 03:18:18;;;;;;;7.22;4.40;;;4.90;91.40;;;;;;2060486;28;20069;-82
2020/12/04 03:19:18;;;;;;;7.10;4.35;;;5.00;91.50;;;;;;2056760;28;20058;-82
2020/12/04 03:20:19;;;;;;;6.88;4.65;;;5.00;91.50;;;;;;2056770;28;20474;-81
2020/12/04 03:21:20;;;;;;;6.88;4.45;;;5.00;91.50;;;;;;2055235;28;20081;-82
2020/12/04 03:22:20;;;;;;;7.15;5.18;;;4.90;91.40;;;;;;2057633;28;20109;-82
2020/12/04 03:23:21;;;;;;;7.28;4.55;;;5.00;91.50;;;;;;2047986;28;20090;-82
2020/12/04 03:24:21;;;;;;;8.20;5.07;;;5.00;91.50;;;;;;2045670;28;20406;-82
2020/12/04 03:25:22;;;;;;;8.23;4.95;;;5.00;91.50;;;;;;2047344;28;20502;-82
2020/12/04 03:26:23;;;;;;;8.68;5.10;;;4.90;91.40;;;;;;2053242;28;20038;-82
2020/12/04 03:27:23;;;;;;;7.45;4.75;;;4.90;91.40;;;;;;2048093;28;20435;-82
2020/12/04 03:28:24;;;;;;;6.78;4.80;;;5.00;91.50;;;;;;2048030;28;20027;-82
2020/12/04 03:29:25;;;;;;;7.53;5.00;;;4.90;91.40;;;;;;2048289;28;20075;-82
2020/12/04 03:30:25;;;;;;;6.68;4.70;;;5.00;91.50;;;;;;2056798;28;20067;-81
2020/12/04 03:31:26;;;;;;;8.23;5.22;;;4.90;91.50;;;;;;2058875;28;20109;-82
2020/12/04 03:32:27;;;;;;;8.23;5.18;;;5.00;91.50;;;;;;2064734;28;20092;-82
2020/12/04 03:33:27;;;;;;;7.55;5.22;;;5.00;91.50;;;;;;2064415;28;20473;-82
2020/12/04 03:34:28;;;;;;;8.30;5.13;;;5.00;91.50;;;;;;2064548;28;20022;-82
2020/12/04 03:35:29;;;;;;;7.72;5.43;;;4.90;91.70;;;;;;2056307;28;20144;-82
2020/12/04 03:36:29;;;;;;;7.53;4.65;;;5.00;91.50;;;;;;2041409;28;20445;-82
2020/12/04 03:37:30;;;;;;;7.50;4.85;;;4.90;91.50;;;;;;2063558;28;20019;-82
2020/12/04 03:38:30;;;;;;;7.13;4.30;;;4.90;91.50;;;;;;2071245;28;20082;-82
2020/12/04 03:39:31;;;;;;;7.68;5.03;;;4.90;91.50;;;;;;2075496;28;20022;-82
2020/12/04 03:40:32;;;;;;;6.70;4.53;;;4.90;91.80;;;;;;2063199;28;20021;-81
2020/12/04 03:41:32;;;;;;;7.70;4.60;;;5.00;91.50;;;;;;2054361;28;20022;-81
2020/12/04 03:42:33;;;;;;;6.72;4.65;;;4.90;91.50;;;;;;2058663;28;20035;-82
2020/12/04 03:43:40;;;;;;;8.00;5.20;;;4.90;91.50;;;;;;2055961;28;20058;-82
2020/12/04 03:44:40;;;;;;;7.68;5.10;;;4.90;91.50;;;;;;2065071;28;20507;-82
2020/12/04 03:45:41;;;;;;;7.65;4.97;;;5.00;91.50;;;;;;2063424;28;20031;-82
2020/12/04 03:46:43;;;;;;;7.03;4.88;;;4.90;91.50;;;;;;2057275;28;20058;-82
2020/12/04 03:47:44;;;;;;;7.57;5.05;;;5.00;91.50;;;;;;2054383;28;20007;-83
2020/12/04 03:48:45;;;;;;;7.13;4.65;;;5.00;91.50;;;;;;2059180;28;20007;-82
2020/12/04 03:49:45;;;;;;;7.15;4.93;;;5.00;91.50;;;;;;2059097;28;20019;-82
2020/12/04 03:50:46;;;;;;;8.55;5.70;;;5.00;91.50;;;;;;2060725;28;20050;-80
2020/12/04 03:51:47;;;;;;;7.80;4.65;;;5.00;91.50;;;;;;2067452;28;20055;-80
2020/12/04 03:52:47;;;;;;;8.05;4.65;;;5.00;91.50;;;;;;2059524;28;20019;-79
2020/12/04 03:53:48;;;;;;;7.05;4.78;;;5.00;91.70;;;;;;2055620;28;20500;-79
2020/12/04 03:54:48;;;;;;;7.88;5.10;;;5.00;91.50;;;;;;2063211;28;20111;-79
2020/12/04 03:55:49;;;;;;;7.82;4.90;;;5.00;91.40;;;;;;2060576;28;20117;-79
2020/12/04 03:56:50;;;;;;;6.93;4.68;;;5.00;91.40;;;;;;2064221;28;20039;-79
2020/12/04 03:57:50;;;;;;;6.75;4.80;;;5.00;91.40;;;;;;2064721;28;20041;-78
2020/12/04 03:58:51;;;;;;;7.70;4.75;;;5.00;91.40;;;;;;2055155;28;20026;-80
2020/12/04 03:59:51;;;;;;;7.07;4.53;;;5.00;91.40;;;;;;2048213;28;20059;-79
2020/12/04 04:00:53;;;;;;;6.50;4.20;;;5.00;91.40;;;;;;2047929;28;20494;-79
2020/12/04 04:01:53;;;;;;;6.75;4.60;;;5.00;91.40;;;;;;2064645;28;20029;-79
2020/12/04 04:02:54;;;;;;;7.30;4.00;;;5.00;91.40;;;;;;2061582;28;20380;-79
2020/12/04 04:03:55;;;;;;;6.10;4.45;;;5.00;91.30;;;;;;2057793;28;20031;-79
2020/12/04 04:04:55;;;;;;;8.00;4.50;;;5.00;91.40;;;;;;2048786;28;20123;-79
2020/12/04 04:05:56;;;;;;;6.38;4.10;;;5.00;91.30;;;;;;2049536;28;20046;-79
2020/12/04 04:06:56;;;;;;;7.03;4.40;;;5.00;91.40;;;;;;2059597;28;20113;-79
2020/12/04 04:07:57;;;;;;;7.38;4.20;;;5.10;91.40;;;;;;2065040;28;20035;-78
2020/12/04 04:08:58;;;;;;;6.60;4.22;;;5.10;91.40;;;;;;2073918;28;20042;-79
2020/12/04 04:10:03;;;;;;;6.57;4.20;;;5.10;91.40;;;;;;2074636;28;20010;-79
2020/12/04 04:11:03;;;;;;;6.80;4.40;;;5.10;91.40;;;;;;2074716;28;20050;-78
2020/12/04 04:12:04;;;;;;;6.97;4.45;;;5.00;91.30;;;;;;2075489;28;20033;-79
2020/12/04 04:13:05;;;;;;;6.10;3.78;;;5.00;91.30;;;;;;2071603;28;20034;-79
2020/12/04 04:14:05;;;;;;;6.55;4.05;;;5.00;91.30;;;;;;2060600;28;20129;-79
2020/12/04 04:15:06;;;;;;;6.50;3.88;;;5.10;91.40;;;;;;2062165;28;20117;-79
2020/12/04 04:16:06;;;;;;;6.50;4.15;;;5.00;91.40;;;;;;2061522;28;20030;-79
2020/12/04 04:17:10;;;;;;;6.70;4.05;;;5.00;91.40;;;;;;2063892;28;20524;-79
2020/12/04 04:18:11;;;;;;;5.35;3.40;;;5.00;91.40;;;;;;2054612;28;20113;-80
2020/12/04 04:19:12;;;;;;;6.03;3.97;;;5.00;91.40;;;;;;2064249;28;20054;-79
2020/12/04 04:20:12;;;;;;;5.97;4.18;;;5.10;91.40;;;;;;2064178;28;20088;-79
2020/12/04 04:21:13;;;;;;;6.20;4.10;;;5.00;91.40;;;;;;2062783;28;20026;-80
2020/12/04 04:22:14;;;;;;;5.82;3.90;;;5.00;91.40;;;;;;2066553;28;20026;-80
2020/12/04 04:23:14;;;;;;;5.90;3.95;;;5.00;91.40;;;;;;2064608;28;20057;-80
2020/12/04 04:24:15;;;;;;;6.65;4.22;;;5.10;91.70;;;;;;2065435;28;20499;-79
2020/12/04 04:25:16;;;;;;;5.95;4.10;;;5.10;91.50;;;;;;2056796;28;20022;-79
2020/12/04 04:26:19;;;;;;;5.93;3.45;;;5.10;91.50;;;;;;2059082;28;20378;-79
2020/12/04 04:27:20;;;;;;;5.75;3.75;;;5.00;91.40;;;;;;2062611;28;20084;-80
2020/12/04 04:28:21;;;;;;;5.35;3.50;;;5.10;91.50;;;;;;2062523;28;20532;-80
2020/12/04 04:29:21;;;;;;;5.20;3.58;;;5.00;91.40;;;;;;2065963;28;20062;-80
2020/12/04 04:30:22;;;;;;;6.38;4.00;;;5.00;91.70;;;;;;2061130;28;20034;-79
2020/12/04 04:31:23;;;;;;;6.18;3.90;;;5.00;91.50;;;;;;2058955;28;20173;-79
2020/12/04 04:32:23;;;;;;;7.18;4.00;;;5.00;91.50;;;;;;2056632;28;20604;-79
2020/12/04 04:33:24;;;;;;;6.72;3.97;;;5.10;91.50;;;;;;2037348;29;20114;-80
2020/12/04 04:34:25;;;;;;;6.43;4.40;;;5.00;91.50;;;;;;2036759;29;20482;-81
2020/12/04 04:35:26;;;;;;;6.38;4.20;;;5.00;91.50;;;;;;2053894;28;20039;-81
2020/12/04 04:36:26;;;;;;;6.85;3.85;;;5.00;91.50;;;;;;2049694;28;20027;-82
2020/12/04 04:37:27;;;;;;;6.20;4.10;;;5.00;91.50;;;;;;2046270;28;20067;-82
2020/12/04 04:38:27;;;;;;;7.18;4.45;;;5.00;91.50;;;;;;2056278;28;20022;-81
2020/12/04 04:39:28;;;;;;;6.20;3.92;;;5.00;91.50;;;;;;2064404;28;20030;-81
2020/12/04 04:40:32;;;;;;;6.28;4.15;;;5.10;91.50;;;;;;2064841;28;20081;-82
2020/12/04 04:41:33;;;;;;;6.07;4.00;;;5.10;91.50;;;;;;2063768;28;20400;-81
2020/12/04 04:42:33;;;;;;;5.72;3.88;;;5.10;91.50;;;;;;2058400;28;20058;-82
2020/12/04 04:43:34;;;;;;;5.85;3.92;;;5.10;91.50;;;;;;2062581;28;20030;-81
2020/12/04 04:44:34;;;;;;;6.47;4.60;;;5.10;91.50;;;;;;2049710;28;20466;-82
2020/12/04 04:45:38;;;;;;;6.10;4.15;;;5.10;91.50;;;;;;2064132;28;20034;-82
2020/12/04 04:47:17;;;;;;;5.57;3.60;;;5.10;91.50;;;;;;2072312;28;20026;-82
2020/12/04 04:48:23;;;;;;;6.25;3.92;;;5.10;91.50;;;;;;2062071;28;20050;-82
2020/12/04 04:49:28;;;;;;;6.00;3.95;;;5.10;91.40;;;;;;2063673;28;20027;-82
2020/12/04 04:50:29;;;;;;;5.03;3.40;;;5.10;91.40;;;;;;2057726;28;20073;-82
2020/12/04 04:51:29;;;;;;;6.72;4.20;;;5.10;91.40;;;;;;2058199;28;20507;-82
2020/12/04 04:52:32;;;;;;;5.65;3.70;;;5.10;91.40;;;;;;2059848;28;20053;-81
2020/12/04 04:53:33;;;;;;;5.25;3.42;;;5.10;91.40;;;;;;2056685;28;20485;-82
2020/12/04 04:54:39;;;;;;;6.40;4.28;;;5.10;91.40;;;;;;2057860;28;20031;-82
2020/12/04 04:55:43;;;;;;;5.60;3.90;;;5.10;91.40;;;;;;2064699;28;20568;-82
2020/12/04 04:56:48;;;;;;;5.68;4.00;;;5.10;91.30;;;;;;2056953;28;20058;-82
2020/12/04 04:57:49;;;;;;;5.90;3.80;;;5.20;91.30;;;;;;2050911;28;20059;-82
2020/12/04 04:58:50;;;;;;;6.28;4.05;;;5.20;91.30;;;;;;2065044;28;20073;-82
2020/12/04 04:59:54;;;;;;;5.20;3.60;;;5.20;91.30;;;;;;2061130;28;20039;-81
2020/12/04 05:00:55;;;;;;;6.40;4.15;;;5.10;91.30;;;;;;2063820;28;23113;-81
2020/12/04 05:01:56;;;;;;;6.40;3.90;;;5.10;91.30;;;;;;2065573;28;20018;-81
2020/12/04 05:02:56;;;;;;;6.03;3.72;;;5.20;91.30;;;;;;2060291;28;20034;-81
2020/12/04 05:04:00;;;;;;;5.70;3.60;;;5.10;91.30;;;;;;2066331;28;20045;-81
2020/12/04 05:05:01;;;;;;;5.63;3.72;;;5.20;91.30;;;;;;2066304;28;20022;-81
2020/12/04 05:06:02;;;;;;;5.93;3.75;;;5.10;91.20;;;;;;2056856;28;20070;-81
2020/12/04 05:07:08;;;;;;;5.28;3.45;;;5.20;91.30;;;;;;2057637;28;20023;-81
2020/12/04 05:08:16;;;;;;;6.63;3.85;;;5.20;91.20;;;;;;2059979;28;20389;-82
2020/12/04 05:09:25;;;;;;;7.07;3.67;;;5.20;91.20;;;;;;2065452;28;20022;-81
2020/12/04 05:10:27;;;;;;;5.15;3.38;;;5.20;91.20;;;;;;2060029;28;20030;-81
2020/12/04 05:11:27;;;;;;;5.68;3.67;;;5.20;91.20;;;;;;2065214;28;20031;-81
2020/12/04 05:12:28;;;;;;;5.35;3.40;;;5.20;91.20;;;;;;2065485;28;20026;-81
2020/12/04 05:13:28;;;;;;;5.53;3.63;;;5.20;91.20;;;;;;2062877;28;20477;-82
2020/12/04 05:14:29;;;;;;;5.60;3.92;;;5.20;91.10;;;;;;2057445;28;20037;-82
2020/12/04 05:15:31;;;;;;;5.57;3.50;;;5.20;91.20;;;;;;2056366;28;20113;-82
2020/12/04 05:16:32;;;;;;;5.43;3.42;;;5.20;91.10;;;;;;2063579;28;20055;-82
2020/12/04 05:17:32;;;;;;;5.60;3.47;;;5.20;91.10;;;;;;2064678;28;20065;-82
2020/12/04 05:18:38;;;;;;;5.53;3.40;;;5.20;91.10;;;;;;2056751;28;20098;-82
2020/12/04 05:19:42;;;;;;;5.53;3.28;;;5.20;91.10;;;;;;2058154;28;20433;-82
2020/12/04 05:20:46;;;;;;;4.97;3.17;;;5.20;91.40;;;;;;2057008;28;20138;-81
2020/12/04 05:21:47;;;;;;;5.07;3.15;;;5.20;91.10;;;;;;2065705;28;20061;-82
2020/12/04 05:22:56;;;;;;;4.70;3.13;;;5.20;91.20;;;;;;2062564;28;20063;-81
2020/12/04 05:23:59;;;;;;;5.05;3.00;;;5.20;91.20;;;;;;2062369;28;20039;-81
2020/12/04 05:25:13;;;;;;;4.50;2.80;;;5.20;91.10;;;;;;2061509;28;20025;-81